createdAt,value
2022-11-25T00:01:41.721Z,68.40
2022-11-25T00:06:49.477Z,67.67
2022-11-25T00:11:58.509Z,67.33
2022-11-25T00:17:06.302Z,69.77
2022-11-25T00:22:14.260Z,62.20
2022-11-25T00:27:22.428Z,60.53
2022-11-25T00:32:30.250Z,68.17
2022-11-25T00:37:38.017Z,68.00
2022-11-25T00:43:04.475Z,56.40
2022-11-25T00:48:13.461Z,72.27
2022-11-25T00:53:21.172Z,60.90
2022-11-25T00:58:28.894Z,62.57
2022-11-25T01:03:39.640Z,58.33
2022-11-25T01:08:47.789Z,57.10
2022-11-25T01:14:01.171Z,43.57
2022-11-25T01:19:06.775Z,41.07
2022-11-25T01:24:15.358Z,39.60
2022-11-25T01:29:23.127Z,36.57
2022-11-25T01:34:32.795Z,42.90
2022-11-25T01:39:40.797Z,41.77
2022-11-25T01:44:51.884Z,42.53
2022-11-25T01:50:03.908Z,44.23
2022-11-25T01:55:17.328Z,40.87
2022-11-25T02:00:25.648Z,50.53
2022-11-25T02:05:54.275Z,46.13
2022-11-25T02:11:04.553Z,42.87
2022-11-25T02:16:12.910Z,39.87
2022-11-25T02:21:23.920Z,41.50
2022-11-25T02:26:31.694Z,49.90
2022-11-25T02:31:40.012Z,49.40
2022-11-25T02:36:48.309Z,46.53
2022-11-25T02:41:57.320Z,42.73
2022-11-25T02:47:05.054Z,41.43
2022-11-25T02:52:13.979Z,41.33
2022-11-25T02:57:21.688Z,41.90
2022-11-25T03:02:30.236Z,41.53
2022-11-25T03:07:38.142Z,41.10
2022-11-25T03:12:45.822Z,41.40
2022-11-25T03:17:54.149Z,41.73
2022-11-25T03:23:01.973Z,42.43
2022-11-25T03:28:10.036Z,41.20
2022-11-25T03:33:18.277Z,40.23
2022-11-25T03:38:25.990Z,42.53
2022-11-25T03:43:35.761Z,41.73
2022-11-25T03:48:43.942Z,49.17
2022-11-25T03:53:51.738Z,42.77
2022-11-25T03:58:59.548Z,43.80
2022-11-25T04:04:07.472Z,40.37
2022-11-25T04:09:15.250Z,44.33
2022-11-25T04:14:23.229Z,41.93
2022-11-25T04:19:31.819Z,43.90
2022-11-25T04:24:39.488Z,44.63
2022-11-25T04:29:47.258Z,51.87
2022-11-25T04:34:55.352Z,43.83
2022-11-25T04:40:03.474Z,45.87
2022-11-25T04:45:33.339Z,42.53
2022-11-25T04:50:23.389Z,44.13
2022-11-25T04:55:32.624Z,38.67
2022-11-25T05:00:40.316Z,42.53
2022-11-25T05:05:48.449Z,39.13
2022-11-25T05:10:56.186Z,42.50
2022-11-25T05:16:04.874Z,41.13
2022-11-25T05:21:13.547Z,40.53
2022-11-25T05:26:21.361Z,38.63
2022-11-25T05:31:29.388Z,43.93
2022-11-25T05:36:37.141Z,42.50
2022-11-25T05:41:44.846Z,38.83
2022-11-25T05:46:52.931Z,41.10
2022-11-25T05:52:01.626Z,43.00
2022-11-25T05:57:09.414Z,39.03
2022-11-25T06:02:17.142Z,40.17
2022-11-25T06:07:25.603Z,37.90
2022-11-25T06:12:33.304Z,39.50
2022-11-25T06:17:41.473Z,45.70
2022-11-25T06:22:50.965Z,41.20
2022-11-25T06:28:12.381Z,38.73
2022-11-25T06:33:10.251Z,41.87
2022-11-25T06:38:18.711Z,38.73
2022-11-25T06:43:26.488Z,42.93
2022-11-25T06:48:34.341Z,39.20
2022-11-25T06:53:42.261Z,38.73
2022-11-25T06:58:50.143Z,44.57
2022-11-25T07:04:00.635Z,42.63
2022-11-25T07:09:08.489Z,42.17
2022-11-25T07:14:16.899Z,43.47
2022-11-25T07:19:24.821Z,40.17
2022-11-25T07:24:35.342Z,48.50
2022-11-25T07:29:58.253Z,43.30
2022-11-25T07:34:52.753Z,43.60
2022-11-25T07:40:00.418Z,43.70
2022-11-25T07:45:08.581Z,43.77
2022-11-25T07:50:16.211Z,43.67
2022-11-25T07:55:24.087Z,46.47
2022-11-25T08:00:32.105Z,44.40
2022-11-25T08:05:39.828Z,44.73
2022-11-25T08:10:47.595Z,41.37
2022-11-25T08:15:55.360Z,44.23
2022-11-25T08:21:05.074Z,44.10
2022-11-25T08:26:19.010Z,43.50
2022-11-25T08:31:29.226Z,40.67
2022-11-25T08:36:37.130Z,42.20
2022-11-25T08:41:44.909Z,43.87
2022-11-25T08:46:53.076Z,45.07
2022-11-25T08:52:01.194Z,43.57
2022-11-25T08:57:09.288Z,41.87
2022-11-25T09:02:17.484Z,41.33
2022-11-25T09:07:30.562Z,42.30
2022-11-25T09:12:34.634Z,42.07
2022-11-25T09:17:42.301Z,40.07
2022-11-25T09:22:49.959Z,37.80
2022-11-25T09:27:59.694Z,36.97
2022-11-25T09:33:07.786Z,35.97
2022-11-25T09:38:15.473Z,31.93
2022-11-25T09:43:56.529Z,33.67
2022-11-25T09:49:42.921Z,34.27
2022-11-25T09:55:03.365Z,35.03
2022-11-25T10:00:17.698Z,35.50
2022-11-25T10:05:28.719Z,36.43
2022-11-25T10:10:42.611Z,35.93
2022-11-25T10:15:51.299Z,40.00
2022-11-25T10:20:59.183Z,37.93
2022-11-25T10:26:18.273Z,37.07
2022-11-25T10:31:33.668Z,37.53
2022-11-25T10:36:41.594Z,37.83
2022-11-25T10:42:08.897Z,35.07
2022-11-25T10:47:44.320Z,34.13
2022-11-25T10:52:58.534Z,27.60
2022-11-25T10:58:33.474Z,27.23
2022-11-25T11:03:41.077Z,27.60
2022-11-25T11:08:49.163Z,25.23
2022-11-25T11:14:11.350Z,23.60
2022-11-25T11:19:24.323Z,23.37
2022-11-25T11:24:37.262Z,23.93
2022-11-25T11:29:45.177Z,21.37
2022-11-25T11:34:56.889Z,20.13
2022-11-25T11:40:20.119Z,18.80
2022-11-25T11:45:45.336Z,17.87
2022-11-25T11:50:56.579Z,16.60
2022-11-25T11:56:39.550Z,14.53
2022-11-25T12:01:46.027Z,15.27
2022-11-25T12:07:03.149Z,13.53
2022-11-25T12:12:13.149Z,13.22
2022-11-25T12:17:24.340Z,14.47
2022-11-25T12:22:38.577Z,14.20
2022-11-25T12:27:49.399Z,13.63
2022-11-25T12:33:00.394Z,15.57
2022-11-25T12:38:37.075Z,15.10
2022-11-25T12:44:06.656Z,14.67
2022-11-25T12:49:26.991Z,14.57
2022-11-25T12:55:11.551Z,13.57
2022-11-25T13:00:57.719Z,13.90
2022-11-25T13:06:20.302Z,13.57
2022-11-25T13:11:50.368Z,14.37
2022-11-25T13:17:01.051Z,14.50
2022-11-25T13:22:28.104Z,14.00
2022-11-25T13:27:42.320Z,15.97
2022-11-25T13:32:50.027Z,14.57
2022-11-25T13:37:57.786Z,15.03
2022-11-25T13:43:07.067Z,17.47
2022-11-25T13:48:21.879Z,17.27
2022-11-25T13:53:33.451Z,16.10
2022-11-25T13:58:41.272Z,14.83
2022-11-25T14:03:50.655Z,14.97
2022-11-25T14:09:18.743Z,14.97
2022-11-25T14:14:50.144Z,15.00
2022-11-25T14:20:01.946Z,15.80
2022-11-25T14:25:30.484Z,16.50
2022-11-25T14:30:53.734Z,15.90
2022-11-25T14:36:16.098Z,17.07
2022-11-25T14:41:43.053Z,20.30
2022-11-25T14:46:58.959Z,17.90
2022-11-25T14:52:07.046Z,19.60
2022-11-25T14:57:15.540Z,18.80
2022-11-25T15:02:29.671Z,17.67
2022-11-25T15:07:37.906Z,19.33
2022-11-25T15:12:48.977Z,20.03
2022-11-25T15:17:56.176Z,20.07
2022-11-25T15:23:03.943Z,20.93
2022-11-25T15:28:14.885Z,21.00
2022-11-25T15:33:24.836Z,19.60
2022-11-25T15:38:43.066Z,20.03
2022-11-25T15:43:54.777Z,17.50
2022-11-25T15:49:06.353Z,20.00
2022-11-25T15:54:17.627Z,28.97
2022-11-25T15:59:59.769Z,30.97
2022-11-25T16:05:20.385Z,32.70
2022-11-25T16:10:45.446Z,32.33
2022-11-25T16:16:19.914Z,31.97
2022-11-25T16:21:42.534Z,28.47
2022-11-25T16:26:55.321Z,28.30
2022-11-25T16:32:05.286Z,25.83
2022-11-25T16:37:13.341Z,27.17
2022-11-25T16:42:27.112Z,37.80
2022-11-25T16:47:34.875Z,36.87
2022-11-25T16:52:46.325Z,39.67
2022-11-25T16:57:57.692Z,38.77
2022-11-25T17:03:06.434Z,41.83
2022-11-25T17:08:14.977Z,43.83
2022-11-25T17:13:26.890Z,30.03
2022-11-25T17:18:39.537Z,27.80
2022-11-25T17:23:53.954Z,28.30
2022-11-25T17:29:01.779Z,26.27
2022-11-25T17:34:21.272Z,27.50
2022-11-25T17:39:29.436Z,31.53
2022-11-25T17:44:37.512Z,37.50
2022-11-25T17:49:46.110Z,39.93
2022-11-25T17:54:56.717Z,34.30
2022-11-25T18:00:07.192Z,32.43
2022-11-25T18:05:16.565Z,34.53
2022-11-25T18:10:27.179Z,29.93
2022-11-25T18:15:35.313Z,33.83
2022-11-25T18:20:43.146Z,31.63
2022-11-25T18:25:50.856Z,40.13
2022-11-25T18:31:06.527Z,38.30
2022-11-25T18:36:16.077Z,41.02
2022-11-25T18:41:24.690Z,44.97
2022-11-25T18:46:36.288Z,37.80
2022-11-25T18:51:44.688Z,42.53
2022-11-25T18:56:53.306Z,46.03
2022-11-25T19:02:01.565Z,47.43
2022-11-25T19:07:09.573Z,52.00
2022-11-25T19:12:21.765Z,46.17
2022-11-25T19:17:29.972Z,43.57
2022-11-25T19:22:37.684Z,41.70
2022-11-25T19:27:50.302Z,45.07
2022-11-25T19:32:59.429Z,49.60
2022-11-25T19:38:10.541Z,45.00
2022-11-25T19:43:18.454Z,44.17
2022-11-25T19:48:28.866Z,44.67
2022-11-25T19:53:39.494Z,43.70
2022-11-25T19:58:49.655Z,47.37
2022-11-25T20:03:58.512Z,46.63
2022-11-25T20:09:09.891Z,49.57
2022-11-25T20:14:17.652Z,44.50
2022-11-25T20:19:28.373Z,37.03
2022-11-25T20:24:37.335Z,40.07
2022-11-25T20:29:47.065Z,41.73
2022-11-25T20:34:56.640Z,41.03
2022-11-25T20:40:05.194Z,41.03
2022-11-25T20:45:20.498Z,38.07
2022-11-25T20:50:31.368Z,41.93
2022-11-25T20:55:39.153Z,44.67
2022-11-25T21:00:50.700Z,45.57
2022-11-25T21:06:01.018Z,44.30
2022-11-25T21:11:09.082Z,43.43
2022-11-25T21:16:17.487Z,47.17
2022-11-25T21:21:34.024Z,46.43
2022-11-25T21:26:42.589Z,45.53
2022-11-25T21:31:51.112Z,45.10
2022-11-25T21:36:59.138Z,42.87
2022-11-25T21:42:09.021Z,42.10
2022-11-25T21:47:22.372Z,40.23
2022-11-25T21:52:30.483Z,35.47
2022-11-25T21:57:40.346Z,39.20
2022-11-25T22:02:49.832Z,37.20
2022-11-25T22:07:59.297Z,40.53
2022-11-25T22:13:07.568Z,44.27
2022-11-25T22:18:29.755Z,38.57
2022-11-25T22:23:38.829Z,39.47
2022-11-25T22:28:48.559Z,45.47
2022-11-25T22:33:56.545Z,54.40
2022-11-25T22:39:18.014Z,55.47
2022-11-25T22:44:31.471Z,60.63
2022-11-25T22:49:41.707Z,63.97
2022-11-25T22:54:50.087Z,61.03
2022-11-25T22:59:58.401Z,59.30
2022-11-25T23:05:11.061Z,54.70
2022-11-25T23:10:20.820Z,61.27
2022-11-25T23:15:28.486Z,59.13
2022-11-25T23:20:37.934Z,66.30
2022-11-25T23:25:45.681Z,63.23
2022-11-25T23:30:58.185Z,58.17
2022-11-25T23:36:12.516Z,54.97
2022-11-25T23:41:25.931Z,52.83
2022-11-25T23:46:34.573Z,45.70
2022-11-25T23:51:42.350Z,48.33
2022-11-25T23:56:50.097Z,51.97
